Aromas, CA

11:38 PM PST on February 23, 2017 (GMT -0800)
Aromas Heights | | Change Station

Elev 160 ft 36.89 °N, 121.65 °W | Updated 5 seconds ago

Clear
Clear
38.2 °F
Feels Like 38 °F
N
0.0
Wind Variable Wind from West
Gusts 0.0 mph

Today
High -- | Low -- °F
--% Chance of Precip.
Yesterday
High -- | Low -- °F
Precip. -- in
Pressure 30.24 in
Visibility 10.0 miles
Clouds Clear
Windchill 38 °F
Dew Point 35 °F
Humidity 87%
Rainfall 0.00 in
Snow Depth Not available.
6:44 AM 5:55 PM
Waning Crescent, 6% visible
METAR KWVI 240653Z AUTO 00000KT 10SM CLR 03/02 A3024 RMK AO2 SLP240 T00280017 $
Pressure 30.24 in
Visibility 10.0 miles
Clouds Clear
Windchill 38 °F
Dew Point 35 °F
Humidity 87%
Rainfall 0.00 in
Snow Depth Not available.
6:44 AM 5:55 PM
Waning Crescent, 6% visible
METAR KWVI 240653Z AUTO 00000KT 10SM CLR 03/02 A3024 RMK AO2 SLP240 T00280017 $

Get Your Daily Forecast Email!

Thanks for signing up!

Be on the lookout for a verification email in your inbox.

You'll start receiving the daily forecast at 8 AM.

×

10-Day Weather Forecast

Almanac

Astronomy

Feb. 23, 2017 Rise Set
Actual Time
Civil Twilight
Nautical Twilight
Astronomical Twilight
Moon
Length of Visible Light
Length of Day
Tomorrow will be .
, % of the Moon is Illuminated

Today's Extremes

State Highs State Lows

Community

WunderPhotos

Upload Photos

1,962,540 photos uploaded!

WunderBlog® & News

Nearby

Air Quality

  Air Quality AQ Index Pollutant
Not available.

Snow Depth

Station Depth Elevation

Earthquake Activity

City Distance Mag. Time & Date
Minimum magnitude displayed is 2.5.

Coastal Water Temperatures

Place Temperature

Stations

Nearby Weather Stations

Station Location Temp. Windchill Dew Point Humidity Wind Precip. Elev Updated Type
                   

Watches & Warnings

Areal Flood Watch
Issued: 3:39 PM PST Feb. 23, 2017 – National Weather Service

... Flood Watch in effect through Friday morning...

The National Weather Service San Francisco Bay area has issued a

* Flood Watch for a portion of western California, including the
following areas: Salinas valley.

* Through Friday morning

* ongoing releases from Lake Nacimiento have resulted in
significant rises on the Salinas river. The Monterey County
water agency indicates there is currently no flooding along the
Salinas river. However, continued releases from Lake Nacimiento
may cause further rises on the Salinas river and minor flooding
is possible.

Precautionary/preparedness actions...

A Flood Watch means there is a potential for flooding based on
current forecasts.

You should monitor later forecasts and be alert for possible
flood warnings. Those living in areas prone to flooding should be
prepared to take action should flooding develop.